This is the latest recevied weather packets stored in our database for station/object N0KWA. If no packets are shown the sender has not sent any weather packets the latest 10 day(s).
| Time | Temp. | Humidity | Pressure | Rain* | Wind** | Luminosity | Snow |
|---|---|---|---|---|---|---|---|
| 1777054846 | 26.67° C | 75% | 1013.7 hPa | 0 mm | - | 25 W/m² | - |
| 1777054543 | 27.22° C | 73% | 1013.7 hPa | 0 mm | - | 24 W/m² | - |
| 1777054239 | 27.22° C | 72% | 1013.5 hPa | 0 mm | - | 42 W/m² | - |
| 1777053938 | 26.67° C | 74% | 1013.7 hPa | 0 mm | - | 542 W/m² | - |
| 1777053627 | 26.67° C | 74% | 1013.9 hPa | 0 mm | - | 29 W/m² | - |
| 1777053321 | 26.67° C | 76% | 1013.9 hPa | 0 mm | - | 23 W/m² | - |
| 1777053018 | 27.22° C | 73% | 1013.9 hPa | 0 mm | - | 23 W/m² | - |
| 1777052715 | 27.78° C | 73% | 1014 hPa | 0 mm | - | 21 W/m² | - |
| 1777052414 | 27.78° C | 71% | 1014.1 hPa | 0 mm | - | 709 W/m² | - |
| 1777052110 | 27.78° C | 71% | 1013.9 hPa | 0 mm | - | 804 W/m² | - |
| 1777051810 | 27.78° C | 70% | 1013.8 hPa | 0 mm | - | 569 W/m² | - |
| 1777051504 | 27.78° C | 71% | 1014.2 hPa | 0 mm | - | 80 W/m² | - |
| 1777051200 | 27.22° C | 74% | 1014.2 hPa | 0 mm | - | 66 W/m² | - |
| 1777050896 | 26.67° C | 75% | 1014.1 hPa | 0 mm | - | 156 W/m² | - |
| 1777050592 | 26.67° C | 76% | 1014.1 hPa | 0 mm | - | 51 W/m² | - |
| 1777050291 | 27.22° C | 73% | 1014.3 hPa | 0 mm | - | 16 W/m² | - |
| 1777049986 | 26.67° C | 76% | 1014.3 hPa | 0 mm | - | 48 W/m² | - |
| 1777049685 | 26.11° C | 78% | 1014.5 hPa | 0 mm | - | 41 W/m² | - |
| 1777049384 | 26.11° C | 77% | 1014.3 hPa | 0 mm | - | 24 W/m² | - |
| 1777049080 | 26.11° C | 78% | 1014.6 hPa | 0 mm | - | 39 W/m² | - |
| 1777048776 | 25.56° C | 79% | 1014.7 hPa | 0 mm | - | 46 W/m² | - |
| 1777048475 | 25.56° C | 80% | 1014.7 hPa | 0 mm | - | 35 W/m² | - |
| 1777048170 | 25.56° C | 78% | 1014.6 hPa | 0 mm | - | 40 W/m² | - |
| 1777047866 | 25.56° C | 79% | 1014.8 hPa | 0 mm | - | 55 W/m² | - |
| 1777047562 | 25° C | 81% | 1014.7 hPa | 0 mm | - | 39 W/m² | - |
* Rain latest hour (hover to see other rain measurements)
** Current wind speed in m/s (hover to see current wind gust speed)